Terminal Aerodrome Forecast
Issued by NWS Sioux Falls, SD

Home | Current Version | Previous Version | Text Only | Print | Product List | Glossary On
Versions: 1 2 3 4 5 6 7 8 9 10 11 12 13 14 15 16 17 18 19 20 21 22 23 24 25 26 27 28 29 30 31
000
FTUS43 KFSD 250500
TAFSUX
TAF
KSUX 250520Z 2506/2606 VRB03KT P6SM SKC
     FM251400 32007KT P6SM SCT100
     FM251900 35009KT P6SM BKN100
     FM260300 35008KT 4SM TSRA BKN060CB=

USA.gov is the U.S. government's official web portal to all federal, state and local government web resources and services.